Friday, May 29, 2015, 1:58 PM EDT

KFYJ, West Point, Middle Peninsula Regional Airport

Location: Shacklefords, VA, United States Lat: 37.521
Local Time: 1:58 PM EDT (17:58 GMT) Lon: -76.764
Time Zone: US/Eastern Elev: 22 ft

Show me the last for .
Show Decoded

2015-05-29 13:35 METAR KFYJ 291735Z AUTO 14006KT 10SM CLR 31/17 A3026 RMK AO2 T03120174 =
2015-05-29 13:15 METAR KFYJ 291715Z AUTO 13007KT 10SM CLR 31/17 A3026 RMK AO2 T03050174 =
2015-05-29 12:35 METAR KFYJ 291635Z AUTO 17005KT 10SM CLR 31/17 A3026 RMK AO2 T03050173 =
2015-05-29 12:15 METAR KFYJ 291615Z AUTO 18004KT 10SM CLR 30/18 A3026 RMK AO2 T03000175 =
2015-05-29 11:55 METAR KFYJ 291555Z AUTO 13004KT 10SM CLR 29/18 A3026 RMK AO2 T02940176 =
2015-05-29 11:35 METAR KFYJ 291535Z AUTO 13006KT 10SM CLR 29/17 A3027 RMK AO2 T02910173 =
2015-05-29 11:15 METAR KFYJ 291515Z AUTO 14005KT 10SM CLR 29/17 A3027 RMK AO2 T02900172 =
2015-05-29 10:55 METAR KFYJ 291455Z AUTO 12003KT 10SM CLR 28/17 A3027 RMK AO2 T02810167 =
2015-05-29 10:35 METAR KFYJ 291435Z AUTO 21004KT 10SM SCT060 28/17 A3027 RMK AO2 T02780166 =
2015-05-29 10:15 METAR KFYJ 291415Z AUTO 20003KT 10SM SCT060 27/16 A3027 RMK AO2 T02680163 =
2015-05-29 09:55 METAR KFYJ 291355Z AUTO 20004KT 10SM CLR 27/16 A3027 RMK AO2 T02710157 =
2015-05-29 09:35 METAR KFYJ 291335Z AUTO 17005KT 10SM CLR 26/16 A3027 RMK AO2 T02640160 =
2015-05-29 09:15 METAR KFYJ 291315Z AUTO 19003KT 10SM CLR 26/17 A3027 RMK AO2 T02610165 =
2015-05-29 08:55 METAR KFYJ 291255Z AUTO 00000KT 10SM SCT041 SCT047 25/17 A3027 RMK AO2 T02530166
                 =
2015-05-29 08:35 METAR KFYJ 291235Z AUTO 20003KT 10SM SCT043 25/17 A3027 RMK AO2 T02460168 =
2015-05-29 08:15 METAR KFYJ 291215Z AUTO 19003KT 10SM CLR 24/17 A3027 RMK AO2 T02420172 =
2015-05-29 07:55 METAR KFYJ 291155Z AUTO 18004KT 10SM CLR 24/17 A3026 RMK AO2 T02370173 10240
                 20217 =
2015-05-29 07:35 METAR KFYJ 291135Z AUTO 16006KT 10SM CLR 23/18 A3026 RMK AO2 T02330175 =
2015-05-29 07:15 METAR KFYJ 291115Z AUTO 15005KT 10SM CLR 23/18 A3026 RMK AO2 T02290175 =
2015-05-29 06:55 METAR KFYJ 291055Z AUTO 16005KT 10SM CLR 23/18 A3025 RMK AO2 T02280175 =
2015-05-29 06:35 METAR KFYJ 291035Z AUTO 16006KT 10SM CLR 23/18 A3024 RMK AO2 T02250176 =
2015-05-29 06:15 METAR KFYJ 291015Z AUTO 16005KT 10SM CLR 22/18 A3024 RMK AO2 T02220175 =
2015-05-29 05:55 METAR KFYJ 290955Z AUTO 16005KT 10SM CLR 22/18 A3023 RMK AO2 T02210176 =
2015-05-29 05:35 METAR KFYJ 290935Z AUTO 15004KT 10SM SCT043 22/18 A3022 RMK AO2 T02210175 =
2015-05-29 05:15 METAR KFYJ 290915Z AUTO 16004KT 10SM SCT043 22/18 A3022 RMK AO2 T02170175 =
2015-05-29 04:55 METAR KFYJ 290855Z AUTO 16003KT 10SM CLR 22/17 A3021 RMK AO2 T02230174 =
2015-05-29 04:35 METAR KFYJ 290835Z AUTO 17003KT 10SM CLR 23/18 A3021 RMK AO2 T02250175 =
2015-05-29 04:15 METAR KFYJ 290815Z AUTO 17004KT 10SM CLR 23/18 A3021 RMK AO2 T02250175 =
2015-05-29 03:55 METAR KFYJ 290755Z AUTO 17005KT 10SM CLR 23/18 A3021 RMK AO2 T02270176 =
2015-05-29 03:35 METAR KFYJ 290735Z AUTO 16004KT 10SM CLR 23/18 A3021 RMK AO2 T02300176 =
2015-05-29 03:15 METAR KFYJ 290715Z AUTO 17003KT 10SM CLR 23/18 A3021 RMK AO2 T02320180 =
2015-05-29 02:35 METAR KFYJ 290635Z AUTO 16005KT 10SM BKN044 BKN049 24/19 A3022 RMK AO2 T02360185
                 =
2015-05-29 02:15 METAR KFYJ 290615Z AUTO 18003KT 10SM SCT041 24/19 A3023 RMK AO2 T02390185 =
2015-05-29 01:55 METAR KFYJ 290555Z AUTO 17004KT 10SM CLR 24/19 A3023 RMK AO2 T02400190 10268
                 20231 403200231 =
2015-05-29 01:35 METAR KFYJ 290535Z AUTO 16004KT 10SM CLR 24/19 A3023 RMK AO2 T02410193 =
2015-05-29 01:15 METAR KFYJ 290515Z AUTO 16004KT 10SM CLR 24/20 A3023 RMK AO2 T02410196 =
2015-05-29 00:55 METAR KFYJ 290455Z AUTO 15004KT 10SM CLR 25/20 A3023 RMK AO2 T02460201 =
2015-05-29 00:35 METAR KFYJ 290435Z AUTO 17003KT 10SM CLR 25/21 A3023 RMK AO2 T02450206 =
2015-05-29 00:15 METAR KFYJ 290415Z AUTO 16004KT 10SM CLR 24/22 A3022 RMK AO2 T02440216 =
2015-05-28 23:55 METAR KFYJ 290355Z AUTO 00000KT 10SM CLR 24/21 A3022 RMK AO2 T02350210 =
2015-05-28 23:35 METAR KFYJ 290335Z AUTO 00000KT 10SM CLR 24/21 A3022 RMK AO2 T02350205 =
2015-05-28 23:15 METAR KFYJ 290315Z AUTO 00000KT 10SM CLR 24/21 A3022 RMK AO2 T02400208 =
2015-05-28 22:55 METAR KFYJ 290255Z AUTO 00000KT 10SM CLR 24/20 A3022 RMK AO2 T02350203 =
2015-05-28 22:35 METAR KFYJ 290235Z AUTO 00000KT 10SM CLR 24/20 A3022 RMK AO2 T02400203 =
2015-05-28 22:15 METAR KFYJ 290215Z AUTO 00000KT 10SM CLR 24/20 A3021 RMK AO2 T02420202 =
2015-05-28 21:55 METAR KFYJ 290155Z AUTO 00000KT 10SM CLR 24/20 A3021 RMK AO2 T02430203 =
2015-05-28 21:35 METAR KFYJ 290135Z AUTO 00000KT 10SM CLR 25/20 A3021 RMK AO2 T02450204 =
2015-05-28 21:15 METAR KFYJ 290115Z AUTO 09003KT 10SM CLR 25/21 A3021 RMK AO2 T02460206 =
2015-05-28 20:55 METAR KFYJ 290055Z AUTO 00000KT 10SM CLR 25/21 A3020 RMK AO2 T02530207 =
2015-05-28 20:35 METAR KFYJ 290035Z AUTO 00000KT 10SM CLR 26/21 A3020 RMK AO2 T02560205 =
2015-05-28 20:15 METAR KFYJ 290015Z AUTO 15003KT 10SM CLR 26/21 A3019 RMK AO2 T02620207 =
2015-05-28 19:55 METAR KFYJ 282355Z AUTO 13005KT 10SM CLR 27/20 A3018 RMK AO2 T02680198 10320
                 20267 =
2015-05-28 19:35 METAR KFYJ 282335Z AUTO 14005KT 10SM CLR 27/20 A3017 RMK AO2 T02710195 =
2015-05-28 19:15 METAR KFYJ 282315Z AUTO 15004KT 10SM CLR 28/20 A3018 RMK AO2 T02830195 =
2015-05-28 18:55 METAR KFYJ 282255Z AUTO 14007KT 10SM CLR 29/20 A3017 RMK AO2 T02920195 =
2015-05-28 18:35 METAR KFYJ 282235Z AUTO 15007KT 10SM CLR 30/20 A3018 RMK AO2 T02950198 =
2015-05-28 17:35 METAR KFYJ 282135Z AUTO 13008KT 10SM CLR 30/20 A3017 RMK AO2 T03020198 =
2015-05-28 17:15 METAR KFYJ 282115Z AUTO 16008KT 10SM CLR 32/19 A3018 RMK AO2 T03160185 =
2015-05-28 16:55 METAR KFYJ 282055Z AUTO 17005KT 10SM CLR 32/17 A3018 RMK AO2 T03170174 =
2015-05-28 16:35 METAR KFYJ 282035Z AUTO 18005KT 10SM CLR 31/18 A3019 RMK AO2 T03110183 =
2015-05-28 16:15 METAR KFYJ 282015Z AUTO 16003KT 10SM CLR 31/18 A3018 RMK AO2 T03100181 =
2015-05-28 15:55 METAR KFYJ 281955Z AUTO 19004KT 10SM CLR 31/18 A3019 RMK AO2 T03080181 =
2015-05-28 15:35 METAR KFYJ 281935Z AUTO 18005KT 10SM CLR 31/19 A3019 RMK AO2 T03130186 =
2015-05-28 15:15 METAR KFYJ 281915Z AUTO 19005KT 10SM CLR 31/19 A3019 RMK AO2 T03110190 =
2015-05-28 14:55 METAR KFYJ 281855Z AUTO 21005KT 10SM CLR 31/19 A3020 RMK AO2 T03110189 =
2015-05-28 14:35 METAR KFYJ 281835Z AUTO 19005KT 10SM CLR 31/19 A3020 RMK AO2 T03070193 =
2015-05-28 14:15 METAR KFYJ 281815Z AUTO 19005KT 10SM CLR 30/20 A3021 RMK AO2 T03020196 =

Support USWX by starting your Amazon purchase here.